createdAt,value
2019-03-23T00:00:52.270Z,5.23
2019-03-23T00:03:19.776Z,7.87
2019-03-23T00:05:47.272Z,5.57
2019-03-23T00:08:14.705Z,5.80
2019-03-23T00:10:42.171Z,4.93
2019-03-23T00:13:09.644Z,6.30
2019-03-23T00:15:45.694Z,6.00
2019-03-23T00:18:13.158Z,8.63
2019-03-23T00:20:40.629Z,6.35
2019-03-23T00:23:08.085Z,5.87
2019-03-23T00:25:35.558Z,9.63
2019-03-23T00:28:03.032Z,5.80
2019-03-23T00:30:30.494Z,6.30
2019-03-23T00:32:57.978Z,6.23
2019-03-23T00:35:25.501Z,7.23
2019-03-23T00:37:52.997Z,9.17
2019-03-23T00:40:20.450Z,9.95
2019-03-23T00:42:47.932Z,10.00
2019-03-23T00:45:15.403Z,9.67
2019-03-23T00:47:42.874Z,14.03
2019-03-23T00:50:11.262Z,15.10
2019-03-23T00:52:38.771Z,13.33
2019-03-23T00:55:06.865Z,19.70
2019-03-23T00:57:34.343Z,17.73
2019-03-23T01:00:01.831Z,18.40
2019-03-23T01:02:29.284Z,20.43
2019-03-23T01:04:56.758Z,20.80
2019-03-23T01:07:24.224Z,21.93
2019-03-23T01:09:51.656Z,25.42
2019-03-23T01:12:19.127Z,20.60
2019-03-23T01:14:46.614Z,22.33
2019-03-23T01:17:14.081Z,24.40
2019-03-23T01:19:41.559Z,28.58
2019-03-23T01:22:09.039Z,25.50
2019-03-23T01:24:36.478Z,24.00
2019-03-23T01:27:03.942Z,22.97
2019-03-23T01:29:31.423Z,22.73
2019-03-23T01:31:58.906Z,26.13
2019-03-23T01:34:26.388Z,29.00
2019-03-23T01:37:02.523Z,32.93
2019-03-23T01:39:21.339Z,29.67
2019-03-23T01:41:48.833Z,29.70
2019-03-23T01:44:16.259Z,29.27
2019-03-23T01:46:43.743Z,27.92
2019-03-23T01:49:11.241Z,35.97
2019-03-23T01:51:38.744Z,30.60
2019-03-23T01:54:06.936Z,33.78
2019-03-23T01:56:34.413Z,33.03
2019-03-23T01:59:01.893Z,31.03
2019-03-23T02:01:29.370Z,31.87
2019-03-23T02:03:56.875Z,30.33
2019-03-23T02:06:24.341Z,37.47
2019-03-23T02:08:51.833Z,42.00
2019-03-23T02:11:19.273Z,42.58
2019-03-23T02:13:46.754Z,41.70
2019-03-23T02:16:14.218Z,35.93
2019-03-23T02:18:41.675Z,38.70
2019-03-23T02:21:09.163Z,39.40
2019-03-23T02:23:37.491Z,37.92
2019-03-23T02:26:06.004Z,42.90
2019-03-23T02:28:33.567Z,40.57
2019-03-23T02:31:01.027Z,43.50
2019-03-23T02:33:28.483Z,43.77
2019-03-23T02:35:55.983Z,41.50
2019-03-23T02:38:23.478Z,43.57
2019-03-23T02:40:50.928Z,44.90
2019-03-23T02:43:18.395Z,41.07
2019-03-23T02:45:45.879Z,45.10
2019-03-23T02:48:13.350Z,41.90
2019-03-23T02:50:40.838Z,45.43
2019-03-23T02:53:08.320Z,41.67
2019-03-23T02:55:35.788Z,41.87
2019-03-23T02:58:03.286Z,44.97
2019-03-23T03:00:30.759Z,45.53
2019-03-23T03:02:58.231Z,46.03
2019-03-23T03:05:25.714Z,51.17
2019-03-23T03:07:53.174Z,48.77
2019-03-23T03:10:35.534Z,49.27
2019-03-23T03:13:03.043Z,47.47
2019-03-23T03:15:30.494Z,52.93
2019-03-23T03:17:58.574Z,51.97
2019-03-23T03:20:26.038Z,53.93
2019-03-23T03:22:53.521Z,56.47
2019-03-23T03:25:21.013Z,57.37
2019-03-23T03:27:48.472Z,52.60
2019-03-23T03:30:15.924Z,52.47
2019-03-23T03:32:43.467Z,52.88
2019-03-23T03:35:10.938Z,66.37
2019-03-23T03:37:38.719Z,71.93
2019-03-23T03:40:06.187Z,73.40
2019-03-23T03:42:33.674Z,75.68
2019-03-23T03:45:01.168Z,70.87
2019-03-23T03:47:28.656Z,81.17
2019-03-23T03:49:56.106Z,73.43
2019-03-23T03:52:23.552Z,87.43
2019-03-23T03:54:51.058Z,85.40
2019-03-23T03:57:18.517Z,75.47
2019-03-23T03:59:45.987Z,83.87
2019-03-23T04:02:13.439Z,75.83
2019-03-23T04:04:40.898Z,85.80
2019-03-23T04:07:09.183Z,88.03
2019-03-23T04:09:36.641Z,90.40
2019-03-23T04:12:04.101Z,94.03
2019-03-23T04:14:31.540Z,85.30
2019-03-23T04:16:59.025Z,94.47
2019-03-23T04:19:26.472Z,94.40
2019-03-23T04:21:53.919Z,95.03
2019-03-23T04:24:21.343Z,92.95
2019-03-23T04:26:48.798Z,99.63
2019-03-23T04:29:16.265Z,94.40
2019-03-23T04:31:43.713Z,91.60
2019-03-23T04:34:12.039Z,95.37
2019-03-23T04:36:39.771Z,93.85
2019-03-23T04:39:07.213Z,101.13
2019-03-23T04:41:34.709Z,98.17
2019-03-23T04:44:02.173Z,105.70
2019-03-23T04:46:29.647Z,103.90
2019-03-23T04:48:57.123Z,103.70
2019-03-23T04:51:24.635Z,106.37
2019-03-23T04:53:52.071Z,105.93
2019-03-23T04:56:19.562Z,111.93
2019-03-23T04:58:47.038Z,123.45
2019-03-23T05:01:14.500Z,111.73
2019-03-23T05:03:41.967Z,114.77
2019-03-23T05:06:10.242Z,117.68
2019-03-23T05:08:38.773Z,107.83
2019-03-23T05:11:06.279Z,117.13
2019-03-23T05:13:33.731Z,118.40
2019-03-23T05:16:01.177Z,125.00
2019-03-23T05:18:28.625Z,122.77
2019-03-23T05:20:56.091Z,116.77
2019-03-23T05:23:23.541Z,120.28
2019-03-23T05:25:51.002Z,117.62
2019-03-23T05:28:18.453Z,119.47
2019-03-23T05:30:45.931Z,110.93
2019-03-23T05:33:13.366Z,121.90
2019-03-23T05:35:40.863Z,126.17
2019-03-23T05:38:08.327Z,135.17
2019-03-23T05:40:35.845Z,143.63
2019-03-23T05:43:03.351Z,142.03
2019-03-23T05:45:30.838Z,145.63
2019-03-23T05:47:58.331Z,130.70
2019-03-23T05:50:25.763Z,131.77
2019-03-23T05:52:53.221Z,141.87
2019-03-23T05:55:20.655Z,131.27
2019-03-23T05:57:48.142Z,132.47
2019-03-23T06:00:15.610Z,144.00
2019-03-23T06:02:43.102Z,139.17
2019-03-23T06:05:11.370Z,142.37
2019-03-23T06:07:38.835Z,155.60
2019-03-23T06:10:06.292Z,149.03
2019-03-23T06:12:33.759Z,151.97
2019-03-23T06:15:01.260Z,149.23
2019-03-23T06:17:28.723Z,152.60
2019-03-23T06:19:56.226Z,154.30
2019-03-23T06:22:23.665Z,167.27
2019-03-23T06:24:51.114Z,172.13
2019-03-23T06:27:18.581Z,180.57
2019-03-23T06:29:46.059Z,153.33
2019-03-23T06:32:13.515Z,164.57
2019-03-23T06:34:41.833Z,151.95
2019-03-23T06:37:09.322Z,155.63
2019-03-23T06:39:36.781Z,154.50
2019-03-23T06:42:05.364Z,162.27
2019-03-23T06:44:32.913Z,140.60
2019-03-23T06:47:00.385Z,138.03
2019-03-23T06:49:27.883Z,147.25
2019-03-23T06:51:55.340Z,136.83
2019-03-23T06:54:22.818Z,129.05
2019-03-23T06:56:50.293Z,143.17
2019-03-23T06:59:17.779Z,137.40
2019-03-23T07:01:45.235Z,132.30
2019-03-23T07:04:12.712Z,125.03
2019-03-23T07:06:40.192Z,123.30
2019-03-23T07:09:15.778Z,124.27
2019-03-23T07:11:35.201Z,115.37
2019-03-23T07:14:02.665Z,109.73
2019-03-23T07:16:30.122Z,114.07
2019-03-23T07:18:57.585Z,112.43
2019-03-23T07:21:25.030Z,104.33
2019-03-23T07:23:52.460Z,114.93
2019-03-23T07:26:19.942Z,114.20
2019-03-23T07:28:47.395Z,112.03
2019-03-23T07:31:14.872Z,104.22
2019-03-23T07:33:43.110Z,106.55
2019-03-23T07:36:10.578Z,108.23
2019-03-23T07:38:38.057Z,111.27
2019-03-23T07:41:05.561Z,104.83
2019-03-23T07:43:33.107Z,103.87
2019-03-23T07:46:00.546Z,101.85
2019-03-23T07:48:28.606Z,105.27
2019-03-23T07:50:57.833Z,107.63
2019-03-23T07:53:25.417Z,101.00
2019-03-23T07:55:52.843Z,92.72
2019-03-23T07:58:20.359Z,92.72
2019-03-23T08:00:47.808Z,93.43
2019-03-23T08:03:16.009Z,99.90
2019-03-23T08:05:43.863Z,94.45
2019-03-23T08:08:11.343Z,95.27
2019-03-23T08:10:38.829Z,100.13
2019-03-23T08:13:06.301Z,96.37
2019-03-23T08:15:33.771Z,91.00
2019-03-23T08:18:01.284Z,94.43
2019-03-23T08:20:28.797Z,96.60
2019-03-23T08:22:56.268Z,94.60
2019-03-23T08:25:23.758Z,97.77
2019-03-23T08:27:51.219Z,101.13
2019-03-23T08:30:18.690Z,98.00
2019-03-23T08:32:46.151Z,94.85
2019-03-23T08:35:14.249Z,100.28
2019-03-23T08:37:44.133Z,96.10
2019-03-23T08:40:11.796Z,90.60
2019-03-23T08:42:39.287Z,101.17
2019-03-23T08:45:06.797Z,90.07
2019-03-23T08:47:34.255Z,99.57
2019-03-23T08:50:02.314Z,96.53
2019-03-23T08:52:29.834Z,92.60
2019-03-23T08:54:57.329Z,99.53
2019-03-23T08:57:24.822Z,92.53
2019-03-23T08:59:52.309Z,94.20
2019-03-23T09:02:21.700Z,95.33
2019-03-23T09:04:47.290Z,96.77
2019-03-23T09:07:14.793Z,96.57
2019-03-23T09:09:42.271Z,92.60
2019-03-23T09:12:09.726Z,91.43
2019-03-23T09:14:37.242Z,95.33
2019-03-23T09:17:04.734Z,91.90
2019-03-23T09:19:32.172Z,92.60
2019-03-23T09:21:59.658Z,100.30
2019-03-23T09:24:27.119Z,87.03
2019-03-23T09:26:54.616Z,90.93
2019-03-23T09:29:22.104Z,96.97
2019-03-23T09:31:49.570Z,84.90
2019-03-23T09:34:17.053Z,87.03
2019-03-23T09:36:46.223Z,85.63
2019-03-23T09:39:13.790Z,90.30
2019-03-23T09:41:41.259Z,91.73
2019-03-23T09:44:08.726Z,85.67
2019-03-23T09:46:36.214Z,92.97
2019-03-23T09:49:04.335Z,87.90
2019-03-23T09:51:32.735Z,86.80
2019-03-23T09:54:00.187Z,82.20
2019-03-23T09:56:27.629Z,83.03
2019-03-23T09:58:55.094Z,80.70
2019-03-23T10:01:22.544Z,88.97
2019-03-23T10:03:50.031Z,84.93
2019-03-23T10:06:17.502Z,84.43
2019-03-23T10:08:46.539Z,84.07
2019-03-23T10:11:13.458Z,88.90
2019-03-23T10:13:40.928Z,77.63
2019-03-23T10:16:08.370Z,83.57
2019-03-23T10:18:35.824Z,81.50
2019-03-23T10:21:03.275Z,86.15
2019-03-23T10:23:31.242Z,82.13
2019-03-23T10:25:58.731Z,84.83
2019-03-23T10:28:26.202Z,86.53
2019-03-23T10:30:53.656Z,88.00
2019-03-23T10:33:21.118Z,81.20
2019-03-23T10:35:48.587Z,84.47
2019-03-23T10:38:16.550Z,83.43
2019-03-23T10:40:44.012Z,78.40
2019-03-23T10:43:11.512Z,84.83
2019-03-23T10:45:44.111Z,82.83
2019-03-23T10:48:06.455Z,81.43
2019-03-23T10:50:33.918Z,82.47
2019-03-23T10:53:01.399Z,81.12
2019-03-23T10:55:28.977Z,77.95
2019-03-23T10:57:57.410Z,82.07
2019-03-23T11:00:24.911Z,87.57
2019-03-23T11:02:52.388Z,74.90
2019-03-23T11:05:19.846Z,79.93
2019-03-23T11:07:47.305Z,74.27
2019-03-23T11:10:14.786Z,75.83
2019-03-23T11:12:42.233Z,79.63
2019-03-23T11:15:09.728Z,76.53
2019-03-23T11:17:37.253Z,67.60
2019-03-23T11:20:04.736Z,73.18
2019-03-23T11:22:32.228Z,75.45
2019-03-23T11:24:59.791Z,69.07
2019-03-23T11:27:27.278Z,70.80
2019-03-23T11:29:54.710Z,66.97
2019-03-23T11:32:23.092Z,67.60
2019-03-23T11:34:50.702Z,58.13
2019-03-23T11:37:18.264Z,56.83
2019-03-23T11:39:45.786Z,55.23
2019-03-23T11:42:13.302Z,59.80
2019-03-23T11:44:43.178Z,62.70
2019-03-23T11:47:10.775Z,59.27
2019-03-23T11:49:38.239Z,58.73
2019-03-23T11:52:05.714Z,55.67
2019-03-23T11:54:33.189Z,58.93
2019-03-23T11:57:00.973Z,51.53
2019-03-23T11:59:28.434Z,54.28
2019-03-23T12:01:55.943Z,54.17
2019-03-23T12:04:25.048Z,49.53
2019-03-23T12:06:51.005Z,56.43
2019-03-23T12:09:18.481Z,49.43
2019-03-23T12:11:45.950Z,55.50
2019-03-23T12:14:13.407Z,51.53
2019-03-23T12:16:40.921Z,49.57
2019-03-23T12:19:09.200Z,53.80
2019-03-23T12:21:36.750Z,51.00
2019-03-23T12:24:04.195Z,50.90
2019-03-23T12:26:31.683Z,46.55
2019-03-23T12:28:59.196Z,45.45
2019-03-23T12:31:26.670Z,46.27
2019-03-23T12:33:54.160Z,45.17
2019-03-23T12:36:21.604Z,41.13
2019-03-23T12:38:49.126Z,39.20
2019-03-23T12:41:23.068Z,44.67
2019-03-23T12:43:44.165Z,45.47
2019-03-23T12:46:35.085Z,43.47
2019-03-23T12:49:02.592Z,43.00
2019-03-23T12:51:30.100Z,42.78
2019-03-23T12:53:57.553Z,43.13
2019-03-23T12:56:25.078Z,39.40
2019-03-23T12:58:52.586Z,40.13
2019-03-23T13:01:20.045Z,41.13
2019-03-23T13:03:47.576Z,42.60
2019-03-23T13:06:15.086Z,44.30
2019-03-23T13:08:42.538Z,42.40
2019-03-23T13:11:10.051Z,45.50
2019-03-23T13:13:37.523Z,40.33
2019-03-23T13:16:05.150Z,40.07
2019-03-23T13:18:32.686Z,41.57
2019-03-23T13:21:00.145Z,45.00
2019-03-23T13:23:27.618Z,46.80
2019-03-23T13:25:55.067Z,41.00
2019-03-23T13:28:22.560Z,43.87
2019-03-23T13:30:49.991Z,42.80
2019-03-23T13:33:17.460Z,45.50
2019-03-23T13:35:44.909Z,37.33
2019-03-23T13:38:12.373Z,36.73
2019-03-23T13:40:39.862Z,36.83
2019-03-23T13:43:07.326Z,38.70
2019-03-23T13:45:42.359Z,40.72
2019-03-23T13:48:02.303Z,36.40
2019-03-23T13:50:29.778Z,38.50
2019-03-23T13:52:57.235Z,37.80
2019-03-23T13:55:27.242Z,39.80
2019-03-23T13:57:54.733Z,38.63
2019-03-23T14:00:22.205Z,38.90
2019-03-23T14:02:50.332Z,38.78
2019-03-23T14:05:17.783Z,34.60
2019-03-23T14:07:45.243Z,31.43
2019-03-23T14:10:12.729Z,34.57
2019-03-23T14:12:40.175Z,31.67
2019-03-23T14:15:07.653Z,32.43
2019-03-23T14:17:35.083Z,36.07
2019-03-23T14:20:02.579Z,34.72
2019-03-23T14:22:30.048Z,35.25
2019-03-23T14:24:57.508Z,34.35
2019-03-23T14:27:25.021Z,32.95
2019-03-23T14:29:52.490Z,37.60
2019-03-23T14:32:20.692Z,37.33
2019-03-23T14:34:48.148Z,31.97
2019-03-23T14:37:15.626Z,33.60
2019-03-23T14:39:43.090Z,31.57
2019-03-23T14:42:10.550Z,36.10
2019-03-23T14:44:38.014Z,34.80
2019-03-23T14:47:05.475Z,31.77
2019-03-23T14:49:35.004Z,32.53
2019-03-23T14:52:02.489Z,36.77
2019-03-23T14:54:29.927Z,33.97
2019-03-23T14:56:57.388Z,35.07
2019-03-23T14:59:24.841Z,35.33
2019-03-23T15:01:52.288Z,36.17
2019-03-23T15:06:53.483Z,38.33
2019-03-23T15:09:21.717Z,34.60
2019-03-23T15:11:50.547Z,34.90
2019-03-23T15:14:18.204Z,37.00
2019-03-23T15:16:45.639Z,34.83
2019-03-23T15:19:13.091Z,38.43
2019-03-23T15:21:40.585Z,34.90
2019-03-23T15:24:08.100Z,40.30
2019-03-23T15:26:35.538Z,39.00
2019-03-23T15:29:04.973Z,36.53
2019-03-23T15:31:32.533Z,42.15
2019-03-23T15:34:00.047Z,42.20
2019-03-23T15:36:27.523Z,44.65
2019-03-23T15:38:55.011Z,43.97
2019-03-23T15:41:22.450Z,46.53
2019-03-23T15:43:49.945Z,41.83
2019-03-23T15:46:17.406Z,42.93
2019-03-23T15:48:44.860Z,41.33
2019-03-23T15:51:12.406Z,39.70
2019-03-23T15:53:39.896Z,51.67
2019-03-23T15:56:07.388Z,41.93
2019-03-23T15:58:34.850Z,45.67
2019-03-23T16:01:02.332Z,43.50
2019-03-23T16:03:29.764Z,47.90
2019-03-23T16:05:57.237Z,43.80
2019-03-23T16:08:24.708Z,41.07
2019-03-23T16:10:52.820Z,43.80
2019-03-23T16:13:20.286Z,41.07
2019-03-23T16:15:48.283Z,43.58
2019-03-23T16:18:15.777Z,40.57
2019-03-23T16:20:43.260Z,41.63
2019-03-23T16:23:10.746Z,37.03
2019-03-23T16:25:38.199Z,38.67
2019-03-23T16:28:05.631Z,35.33
2019-03-23T16:30:33.120Z,38.23
2019-03-23T16:33:00.572Z,44.20
2019-03-23T16:35:28.028Z,37.30
2019-03-23T16:37:55.486Z,44.43
2019-03-23T16:40:23.343Z,43.27
2019-03-23T16:42:50.814Z,45.40
2019-03-23T16:45:18.309Z,44.00
2019-03-23T16:47:45.765Z,44.97
2019-03-23T16:50:13.286Z,44.10
2019-03-23T16:52:40.832Z,43.05
2019-03-23T16:55:08.302Z,43.53
2019-03-23T16:57:35.771Z,40.58
2019-03-23T17:00:03.240Z,40.10
2019-03-23T17:02:30.690Z,43.35
2019-03-23T17:04:58.182Z,39.97
2019-03-23T17:07:25.650Z,38.30
2019-03-23T17:09:53.845Z,39.50
2019-03-23T17:12:21.326Z,40.30
2019-03-23T17:14:48.794Z,40.07
2019-03-23T17:17:16.265Z,40.57
2019-03-23T17:19:43.775Z,39.50
2019-03-23T17:22:11.237Z,29.42
2019-03-23T17:24:38.697Z,39.73
2019-03-23T17:27:06.166Z,39.03
2019-03-23T17:29:33.610Z,40.13
2019-03-23T17:32:01.113Z,40.53
2019-03-23T17:34:28.588Z,40.70
2019-03-23T17:36:56.042Z,37.00
2019-03-23T17:39:24.517Z,38.30
2019-03-23T17:41:52.008Z,41.43
2019-03-23T17:44:19.502Z,36.40
2019-03-23T17:46:46.948Z,42.20
2019-03-23T17:49:15.447Z,40.07
2019-03-23T17:51:43.002Z,38.97
2019-03-23T17:54:10.483Z,40.27
2019-03-23T17:56:37.984Z,39.17
2019-03-23T17:59:05.439Z,38.40
2019-03-23T18:01:33.883Z,36.50
2019-03-23T18:04:01.883Z,37.53
2019-03-23T18:06:29.374Z,41.53
2019-03-23T18:08:56.889Z,42.13
2019-03-23T18:11:24.341Z,38.67
2019-03-23T18:13:51.859Z,39.07
2019-03-23T18:16:19.398Z,39.50
2019-03-23T18:18:46.942Z,39.13
2019-03-23T18:21:14.411Z,38.23
2019-03-23T18:23:41.861Z,39.10
2019-03-23T18:26:09.310Z,39.50
2019-03-23T18:28:36.794Z,41.50
2019-03-23T18:31:04.257Z,40.43
2019-03-23T18:33:31.726Z,42.80
2019-03-23T18:35:59.184Z,40.00
2019-03-23T18:38:26.666Z,40.83
2019-03-23T18:40:54.209Z,41.93
2019-03-23T18:43:27.322Z,41.10
2019-03-23T18:45:49.143Z,41.20
2019-03-23T18:48:16.594Z,40.60
2019-03-23T18:50:44.051Z,47.30
2019-03-23T18:53:11.509Z,43.57
2019-03-23T18:55:38.982Z,43.90
2019-03-23T18:58:06.469Z,42.57
2019-03-23T19:00:41.906Z,45.87
2019-03-23T19:03:09.374Z,48.30
2019-03-23T19:05:36.836Z,48.20
2019-03-23T19:08:04.364Z,50.97
2019-03-23T19:10:33.683Z,48.10
2019-03-23T19:13:01.240Z,49.53
2019-03-23T19:15:28.705Z,46.97
2019-03-23T19:17:56.174Z,46.22
2019-03-23T19:20:23.710Z,44.73
2019-03-23T19:22:51.143Z,43.33
2019-03-23T19:25:18.681Z,40.03
2019-03-23T19:27:46.112Z,39.30
2019-03-23T19:30:13.584Z,36.85
2019-03-23T19:32:41.058Z,31.77
2019-03-23T19:35:08.545Z,24.55
2019-03-23T19:37:35.989Z,21.13
2019-03-23T19:40:03.530Z,19.67
2019-03-23T19:42:31.086Z,18.33
2019-03-23T19:44:58.561Z,16.83
2019-03-23T19:47:26.018Z,15.10
2019-03-23T19:49:53.486Z,13.23
2019-03-23T19:52:20.935Z,17.10
2019-03-23T19:54:48.485Z,16.63
2019-03-23T19:57:16.037Z,16.03
2019-03-23T19:59:43.471Z,15.10
2019-03-23T20:02:11.017Z,16.10
2019-03-23T20:04:38.524Z,17.07
2019-03-23T20:07:05.997Z,14.57
2019-03-23T20:09:33.492Z,14.60
2019-03-23T20:12:01.011Z,16.77
2019-03-23T20:14:28.490Z,15.20
2019-03-23T20:16:55.986Z,13.73
2019-03-23T20:19:23.451Z,17.95
2019-03-23T20:21:51.790Z,18.55
2019-03-23T20:24:19.293Z,16.35
2019-03-23T20:26:46.727Z,19.53
2019-03-23T20:29:14.215Z,17.80
2019-03-23T20:31:41.709Z,22.83
2019-03-23T20:34:09.200Z,18.67
2019-03-23T20:36:36.680Z,21.73
2019-03-23T20:39:04.138Z,19.47
2019-03-23T20:41:31.634Z,19.50
2019-03-23T20:44:08.839Z,19.37
2019-03-23T20:46:26.581Z,17.37
2019-03-23T20:48:54.117Z,16.67
2019-03-23T20:51:21.586Z,18.48
2019-03-23T20:53:49.042Z,18.47
2019-03-23T20:56:16.578Z,19.65
2019-03-23T20:58:44.073Z,17.52
2019-03-23T21:01:11.531Z,21.02
2019-03-23T21:03:39.005Z,20.63
2019-03-23T21:06:06.505Z,18.13
2019-03-23T21:08:33.968Z,17.23
2019-03-23T21:11:01.489Z,17.05
2019-03-23T21:13:28.969Z,17.77
2019-03-23T21:15:56.399Z,17.53
2019-03-23T21:18:23.890Z,15.88
2019-03-23T21:20:51.429Z,14.27
2019-03-23T21:23:18.916Z,15.63
2019-03-23T21:25:46.427Z,17.97
2019-03-23T21:28:13.918Z,18.33
2019-03-23T21:30:41.376Z,13.90
2019-03-23T21:33:08.869Z,16.67
2019-03-23T21:35:37.129Z,12.80
2019-03-23T21:38:04.616Z,10.17
2019-03-23T21:40:32.161Z,14.27
2019-03-23T21:42:59.623Z,12.30
2019-03-23T21:45:27.098Z,13.43
2019-03-23T21:47:54.578Z,11.57
2019-03-23T21:50:22.019Z,14.63
2019-03-23T21:52:50.169Z,14.00
2019-03-23T21:55:17.752Z,12.03
2019-03-23T21:57:45.234Z,14.70
2019-03-23T22:00:12.819Z,11.07
2019-03-23T22:02:40.366Z,10.97
2019-03-23T22:05:08.378Z,11.53
2019-03-23T22:07:36.043Z,12.13
2019-03-23T22:10:03.531Z,9.93
2019-03-23T22:12:31.012Z,10.87
2019-03-23T22:14:58.483Z,10.73
2019-03-23T22:17:25.950Z,8.30
2019-03-23T22:19:53.439Z,8.53
2019-03-23T22:22:21.040Z,9.37
2019-03-23T22:24:48.516Z,9.07
2019-03-23T22:27:16.265Z,7.23
2019-03-23T22:29:43.803Z,6.93
2019-03-23T22:32:11.434Z,10.47
2019-03-23T22:34:39.570Z,11.27
2019-03-23T22:37:07.103Z,7.07
2019-03-23T22:39:34.582Z,6.53
2019-03-23T22:42:02.049Z,8.03
2019-03-23T22:44:29.510Z,9.90
2019-03-23T22:46:56.981Z,7.13
2019-03-23T22:49:24.451Z,9.45
2019-03-23T22:51:51.909Z,8.67
2019-03-23T22:54:19.412Z,7.50
2019-03-23T22:56:46.847Z,10.75
2019-03-23T22:59:15.400Z,10.32
2019-03-23T23:01:41.902Z,10.20
2019-03-23T23:04:09.646Z,7.73
2019-03-23T23:06:37.097Z,8.50
2019-03-23T23:09:04.557Z,9.65
2019-03-23T23:11:32.111Z,9.20
2019-03-23T23:13:59.589Z,7.15
2019-03-23T23:16:27.050Z,7.63
2019-03-23T23:18:54.538Z,10.35
2019-03-23T23:21:22.017Z,7.50
2019-03-23T23:23:49.574Z,9.43
2019-03-23T23:26:17.072Z,9.50
2019-03-23T23:28:44.735Z,10.63
2019-03-23T23:31:12.172Z,7.03
2019-03-23T23:33:39.683Z,10.13
2019-03-23T23:36:07.167Z,10.47
2019-03-23T23:38:34.619Z,10.82
2019-03-23T23:41:02.086Z,7.17
2019-03-23T23:43:29.533Z,7.85
2019-03-23T23:45:57.020Z,8.17
2019-03-23T23:48:24.472Z,9.33
2019-03-23T23:50:51.992Z,9.95
2019-03-23T23:53:19.459Z,11.50
2019-03-23T23:55:46.922Z,8.27
2019-03-23T23:58:14.777Z,12.27
